Almont, Michigan
Current Conditions -  °F | °C
As of 8:33 AM on Friday 28 Nov 2014 (Local Time) from KD95 Reporting Station
Scattered Clouds Scattered Clouds  
Wind Chill: 18°   Ceiling: Unl
Heat Index: 18°   Visibility: 10mi
Dew Point: 11°   Wind: 3mph
Humidity: 72%   Direction: 270°W
Pressure: 30.32"   Gusts: NA
Location:  42.92°N, 83.04°W
Report Text: KD95 281333Z AUTO 27003KT 10SM SCT110 M08/M12 A3032 RMK AO2 T10771119
Loading
Personal Weather Stations






























Interactive Weather Map New forecast layout! Learn more

10-Day Weather Forecast

Advertisements
Track Severe Weather on mobile